Aviation Digital Data Service (ADDS)

Output produced by METARs form (0633 UTC 19 February 2019)
found at http://www.aviationweather.gov/metar/data/
 
METAR text: GVAC 190500Z 04010KT 8000 FEW014 19/15 Q1015 NOSIG
Conditions at: GVAC (SAL ISL/AMILCAR , CV) observed 0500 UTC 19 February 2019
Temperature: 19.0°C (66°F)
Dewpoint: 15.0°C (59°F) [RH = 78%]
Pressure (altimeter): 29.97 inches Hg (1015.0 mb)
Winds: from the NE (40 degrees) at 12 MPH (10 knots; 5.1 m/s)
Visibility: 5 miles ( 8 km)
Ceiling: at least 12,000 feet AGL
Clouds: few clouds at 1400 feet AGL
Weather: no significant weather observed at this time

METAR text: GVAC 190300Z 05010KT 8000 SCT014 19/16 Q1016 NOSIG
Conditions at: GVAC (SAL ISL/AMILCAR , CV) observed 0300 UTC 19 February 2019
Temperature: 19.0°C (66°F)
Dewpoint: 16.0°C (61°F) [RH = 83%]
Pressure (altimeter): 30.00 inches Hg (1016.0 mb)
Winds: from the NE (50 degrees) at 12 MPH (10 knots; 5.1 m/s)
Visibility: 5 miles ( 8 km)
Ceiling: at least 12,000 feet AGL
Clouds: scattered clouds at 1400 feet AGL
Weather: no significant weather observed at this time

METAR text: GVAC 190100Z 06011KT 8000 SCT014 20/16 Q1017 NOSIG
Conditions at: GVAC (SAL ISL/AMILCAR , CV) observed 0100 UTC 19 February 2019
Temperature: 20.0°C (68°F)
Dewpoint: 16.0°C (61°F) [RH = 78%]
Pressure (altimeter): 30.03 inches Hg (1017.0 mb)
Winds: from the ENE (60 degrees) at 13 MPH (11 knots; 5.7 m/s)
Visibility: 5 miles ( 8 km)
Ceiling: at least 12,000 feet AGL
Clouds: scattered clouds at 1400 feet AGL
Weather: no significant weather observed at this time

METAR text: GVAC 181400Z 05017KT 9999 BKN014 SCT200 25/15 Q1016 METAR
Conditions at: GVAC (SAL ISL/AMILCAR , CV) observed 1400 UTC 18 February 2019
Temperature: 25.0°C (77°F)
Dewpoint: 15.0°C (59°F) [RH = 54%]
Pressure (altimeter): 30.00 inches Hg (1016.0 mb)
Winds: from the NE (50 degrees) at 20 MPH (17 knots; 8.7 m/s)
Visibility: 6 or more miles (10+ km)
Ceiling: 1400 feet AGL
Clouds: broken clouds at 1400 feet AGL
scattered clouds at 20000 feet AGL
Weather: no significant weather observed at this time

METAR text: GVAC 181300Z 05017KT 9999 SCT014 BKN200 24/14 Q1017 NOSIG
Conditions at: GVAC (SAL ISL/AMILCAR , CV) observed 1300 UTC 18 February 2019
Temperature: 24.0°C (75°F)
Dewpoint: 14.0°C (57°F) [RH = 54%]
Pressure (altimeter): 30.03 inches Hg (1017.0 mb)
Winds: from the NE (50 degrees) at 20 MPH (17 knots; 8.7 m/s)
Visibility: 6 or more miles (10+ km)
Ceiling: 20000 feet AGL
Clouds: scattered clouds at 1400 feet AGL
broken clouds at 20000 feet AGL
Weather: no significant weather observed at this time

METAR text: GVAC 180700Z 04013KT 9999 BKN014 SCT100 20/14 Q1016
Conditions at: GVAC (SAL ISL/AMILCAR , CV) observed 0700 UTC 18 February 2019
Temperature: 20.0°C (68°F)
Dewpoint: 14.0°C (57°F) [RH = 68%]
Pressure (altimeter): 30.00 inches Hg (1016.0 mb)
Winds: from the NE (40 degrees) at 15 MPH (13 knots; 6.7 m/s)
Visibility: 6 or more miles (10+ km)
Ceiling: 1400 feet AGL
Clouds: broken clouds at 1400 feet AGL
scattered clouds at 10000 feet AGL
Weather: no significant weather observed at this time

METAR text: GVAC 180300Z 06013KT 9999 BKN014 SCT100 20/14 Q1017 NOSIG
Conditions at: GVAC (SAL ISL/AMILCAR , CV) observed 0300 UTC 18 February 2019
Temperature: 20.0°C (68°F)
Dewpoint: 14.0°C (57°F) [RH = 68%]
Pressure (altimeter): 30.03 inches Hg (1017.0 mb)
Winds: from the ENE (60 degrees) at 15 MPH (13 knots; 6.7 m/s)
Visibility: 6 or more miles (10+ km)
Ceiling: 1400 feet AGL
Clouds: broken clouds at 1400 feet AGL
scattered clouds at 10000 feet AGL
Weather: no significant weather observed at this time

METAR text: GVAC 180200Z 04013KT 9999 BKN014 SCT100 20/13 Q1018 NOSIG
Conditions at: GVAC (SAL ISL/AMILCAR , CV) observed 0200 UTC 18 February 2019
Temperature: 20.0°C (68°F)
Dewpoint: 13.0°C (55°F) [RH = 64%]
Pressure (altimeter): 30.06 inches Hg (1018.0 mb)
Winds: from the NE (40 degrees) at 15 MPH (13 knots; 6.7 m/s)
Visibility: 6 or more miles (10+ km)
Ceiling: 1400 feet AGL
Clouds: broken clouds at 1400 feet AGL
scattered clouds at 10000 feet AGL
Weather: no significant weather observed at this time

METAR text: GVAC 180100Z 05011KT 9999 BKN014 SCT100 20/14 Q1018 NOSIG
Conditions at: GVAC (SAL ISL/AMILCAR , CV) observed 0100 UTC 18 February 2019
Temperature: 20.0°C (68°F)
Dewpoint: 14.0°C (57°F) [RH = 68%]
Pressure (altimeter): 30.06 inches Hg (1018.0 mb)
Winds: from the NE (50 degrees) at 13 MPH (11 knots; 5.7 m/s)
Visibility: 6 or more miles (10+ km)
Ceiling: 1400 feet AGL
Clouds: broken clouds at 1400 feet AGL
scattered clouds at 10000 feet AGL
Weather: no significant weather observed at this time